| time (UTC) | temp F | wind direction | speed knots | gust knots | rain 1hr in | rain 24hr in | rain mn in | humidity % | barometer mb |
| 20260508004449 | 40 | 40 | 0.0 | 0.0 | 0.00 | 0.00 | 0.00 | 73 | 998.2 |
| 20260508003949 | 40 | 40 | 0.0 | 0.0 | 0.00 | 0.00 | 0.00 | 73 | 998.1 |
| 20260508003449 | 40 | 40 | 0.0 | 0.0 | 0.00 | 0.00 | 0.00 | 73 | 998.0 |
| 20260508002949 | 40 | 40 | 0.0 | 0.0 | 0.00 | 0.00 | 0.00 | 72 | 998.0 |
| 20260508002449 | 40 | 40 | 0.0 | 0.9 | 0.00 | 0.00 | 0.00 | 72 | 998.0 |
| 20260508001949 | 40 | 40 | 0.0 | 0.9 | 0.00 | 0.00 | 0.00 | 71 | 997.9 |
| 20260508001449 | 41 | 40 | 0.0 | 0.9 | 0.00 | 0.00 | 0.00 | 71 | 998.0 |
| 20260508000949 | 41 | 40 | 0.0 | 0.0 | 0.00 | 0.00 | 0.00 | 71 | 997.9 |
| 20260508000450 | 41 | 40 | 0.0 | 0.0 | 0.00 | 0.00 | 0.00 | 70 | 997.8 |
| 20260507235949 | 41 | 40 | 0.0 | 0.0 | 0.00 | 0.00 | 0.00 | 69 | 997.8 |
| 20260507235449 | 41 | 40 | 0.0 | 0.0 | 0.00 | 0.00 | 0.00 | 70 | 997.8 |
| 20260507234949 | 41 | 40 | 0.0 | 0.9 | 0.00 | 0.00 | 0.00 | 69 | 997.9 |
| 20260507234449 | 41 | 18 | 0.0 | 0.9 | 0.00 | 0.00 | 0.00 | 69 | 997.8 |
| 20260507233950 | 41 | 18 | 0.0 | 0.9 | 0.00 | 0.00 | 0.00 | 68 | 997.8 |
| 20260507233450 | 42 | 18 | 0.0 | 0.9 | 0.00 | 0.00 | 0.00 | 66 | 997.9 |
| 20260507232949 | 42 | 18 | 0.0 | 0.9 | 0.00 | 0.00 | 0.00 | 66 | 997.8 |
| 20260507232449 | 42 | 18 | 0.0 | 0.9 | 0.00 | 0.00 | 0.00 | 66 | 997.8 |
| 20260507231949 | 42 | 18 | 0.0 | 0.9 | 0.00 | 0.00 | 0.00 | 66 | 997.8 |
| 20260507231449 | 42 | 18 | 0.0 | 0.9 | 0.00 | 0.00 | 0.00 | 65 | 997.8 |
| 20260507230949 | 42 | 16 | 0.0 | 0.9 | 0.00 | 0.00 | 0.00 | 66 | 997.8 |
| 20260507230449 | 42 | 16 | 0.0 | 0.9 | 0.00 | 0.00 | 0.00 | 66 | 997.9 |
| 20260507225949 | 42 | 16 | 0.0 | 0.9 | 0.00 | 0.00 | 0.00 | 64 | 997.9 |
| 20260507225449 | 42 | 16 | 0.9 | 1.7 | 0.00 | 0.00 | 0.00 | 65 | 998.0 |
| 20260507224949 | 43 | 52 | 0.0 | 1.7 | 0.00 | 0.00 | 0.00 | 63 | 998.0 |
| 20260507224449 | 43 | 25 | 0.9 | 0.9 | 0.00 | 0.00 | 0.00 | 63 | 998.0 |
| 20260507223949 | 43 | 25 | 1.7 | 2.6 | 0.00 | 0.00 | 0.00 | 63 | 998.0 |
| 20260507223449 | 44 | 323 | 2.6 | 7.0 | 0.00 | 0.00 | 0.00 | 60 | 998.0 |
| 20260507222949 | 44 | 309 | 1.7 | 6.1 | 0.00 | 0.00 | 0.00 | 57 | 997.9 |
| 20260507222449 | 44 | 250 | 1.7 | 2.6 | 0.00 | 0.00 | 0.00 | 58 | 997.7 |
| 20260507221949 | 44 | 300 | 4.3 | 6.1 | 0.00 | 0.00 | 0.00 | 57 | 997.7 |
| 20260507221449 | 44 | 284 | 4.3 | 9.6 | 0.00 | 0.00 | 0.00 | 55 | 997.7 |
| 20260507220949 | 44 | 298 | 3.5 | 9.6 | 0.00 | 0.00 | 0.00 | 55 | 997.7 |
| 20260507220449 | 45 | 284 | 2.6 | 5.2 | 0.00 | 0.00 | 0.00 | 55 | 997.7 |
| 20260507215949 | 45 | 288 | 4.3 | 5.2 | 0.00 | 0.00 | 0.00 | 56 | 997.7 |
| 20260507215449 | 44 | 294 | 5.2 | 9.6 | 0.00 | 0.00 | 0.00 | 54 | 997.7 |
| 20260507214949 | 45 | 284 | 3.5 | 10.4 | 0.00 | 0.00 | 0.00 | 55 | 997.7 |
| 20260507214449 | 45 | 273 | 1.7 | 5.2 | 0.00 | 0.00 | 0.00 | 57 | 997.7 |
| 20260507213949 | 45 | 257 | 3.5 | 4.3 | 0.00 | 0.00 | 0.00 | 56 | 997.6 |
| 20260507213449 | 45 | 273 | 4.3 | 7.8 | 0.00 | 0.00 | 0.00 | 55 | 997.6 |
| 20260507212949 | 45 | 290 | 2.6 | 7.0 | 0.00 | 0.00 | 0.00 | 55 | 997.6 |
| 20260507212449 | 45 | 288 | 2.6 | 6.1 | 0.00 | 0.00 | 0.00 | 55 | 997.6 |
| 20260507211949 | 45 | 239 | 3.5 | 6.1 | 0.00 | 0.00 | 0.00 | 54 | 997.6 |
| 20260507211449 | 45 | 284 | 4.3 | 8.7 | 0.00 | 0.00 | 0.00 | 53 | 997.6 |
| 20260507210950 | 46 | 287 | 3.5 | 9.6 | 0.00 | 0.00 | 0.00 | 53 | 997.6 |
| 20260507210450 | 46 | 258 | 3.5 | 7.0 | 0.00 | 0.00 | 0.00 | 55 | 997.6 |
| 20260507205949 | 46 | 282 | 4.3 | 7.8 | 0.00 | 0.00 | 0.00 | 54 | 997.6 |
| 20260507205449 | 46 | 270 | 4.3 | 7.8 | 0.00 | 0.00 | 0.00 | 54 | 997.7 |
| 20260507204949 | 45 | 284 | 4.3 | 9.6 | 0.00 | 0.00 | 0.00 | 54 | 997.7 |
| 20260507204449 | 45 | 288 | 2.6 | 7.8 | 0.00 | 0.00 | 0.00 | 55 | 997.6 |
| 20260507203950 | 45 | 277 | 2.6 | 4.3 | 0.00 | 0.00 | 0.00 | 58 | 997.8 |
| 20260507203449 | 45 | 283 | 2.6 | 6.1 | 0.00 | 0.00 | 0.00 | 56 | 997.8 |
| 20260507202950 | 45 | 350 | 3.5 | 6.1 | 0.00 | 0.00 | 0.00 | 57 | 997.9 |
| 20260507202450 | 46 | 320 | 3.5 | 8.7 | 0.00 | 0.00 | 0.00 | 57 | 997.9 |
| 20260507201950 | 45 | 288 | 3.5 | 7.8 | 0.00 | 0.00 | 0.00 | 58 | 997.8 |
| 20260507201450 | 46 | 301 | 3.5 | 9.6 | 0.00 | 0.00 | 0.00 | 56 | 997.8 |
| 20260507200950 | 46 | 255 | 2.6 | 6.1 | 0.00 | 0.00 | 0.00 | 60 | 997.8 |
| 20260507200450 | 45 | 317 | 4.3 | 6.1 | 0.00 | 0.00 | 0.00 | 60 | 997.8 |
| 20260507195950 | 45 | 283 | 5.2 | 8.7 | 0.00 | 0.00 | 0.00 | 59 | 997.9 |
| 20260507195450 | 45 | 290 | 4.3 | 7.0 | 0.00 | 0.00 | 0.00 | 58 | 997.8 |
| 20260507194950 | 45 | 290 | 4.3 | 6.1 | 0.00 | 0.00 | 0.00 | 60 | 997.9 |
| 20260507194450 | 45 | 297 | 4.3 | 10.4 | 0.00 | 0.00 | 0.00 | 57 | 998.0 |
| 20260507193950 | 44 | 292 | 3.5 | 8.7 | 0.00 | 0.00 | 0.00 | 60 | 998.1 |
| 20260507193450 | 44 | 297 | 3.5 | 7.8 | 0.00 | 0.00 | 0.00 | 60 | 998.2 |
| 20260507192950 | 44 | 308 | 1.7 | 7.8 | 0.00 | 0.00 | 0.00 | 61 | 998.2 |
| 20260507192450 | 43 | 138 | 0.9 | 3.5 | 0.00 | 0.00 | 0.00 | 69 | 998.3 |
| 20260507191950 | 43 | 174 | 1.7 | 3.5 | 0.00 | 0.00 | 0.00 | 69 | 998.4 |
| 20260507191450 | 43 | 173 | 0.9 | 3.5 | 0.00 | 0.00 | 0.00 | 71 | 998.4 |
| 20260507190950 | 43 | 147 | 0.9 | 3.5 | 0.00 | 0.00 | 0.00 | 71 | 998.5 |
| 20260507190450 | 43 | 53 | 0.0 | 0.0 | 0.00 | 0.00 | 0.00 | 73 | 998.5 |
| 20260507185950 | 43 | 85 | 0.9 | 2.6 | 0.00 | 0.00 | 0.00 | 72 | 998.6 |
| 20260507185450 | 43 | 143 | 0.9 | 1.7 | 0.00 | 0.00 | 0.00 | 72 | 998.6 |
| 20260507184950 | 43 | 244 | 0.0 | 1.7 | 0.00 | 0.00 | 0.00 | 69 | 998.6 |
| 20260507184450 | 43 | 151 | 0.9 | 0.9 | 0.00 | 0.00 | 0.00 | 70 | 998.6 |
| 20260507183950 | 43 | 175 | 0.9 | 3.5 | 0.00 | 0.00 | 0.00 | 68 | 998.6 |
| 20260507183450 | 43 | 126 | 0.9 | 1.7 | 0.00 | 0.00 | 0.00 | 73 | 998.6 |
| 20260507182950 | 42 | 104 | 0.9 | 2.6 | 0.00 | 0.00 | 0.00 | 72 | 998.7 |
| 20260507182450 | 42 | 99 | 0.9 | 1.7 | 0.00 | 0.00 | 0.00 | 71 | 998.7 |
| 20260507181950 | 42 | 111 | 0.9 | 1.7 | 0.00 | 0.00 | 0.00 | 70 | 998.8 |
| 20260507181450 | 42 | 126 | 0.0 | 1.7 | 0.00 | 0.00 | 0.00 | 72 | 998.8 |
| 20260507180950 | 42 | 224 | 0.0 | 1.7 | 0.00 | 0.00 | 0.00 | 70 | 998.8 |
| 20260507180450 | 42 | 306 | 0.9 | 0.9 | 0.00 | 0.00 | 0.00 | 70 | 998.8 |
| 20260507175950 | 42 | 306 | 0.9 | 2.6 | 0.00 | 0.00 | 0.00 | 69 | 998.8 |
| 20260507175450 | 42 | 331 | 1.7 | 3.5 | 0.00 | 0.00 | 0.00 | 69 | 998.8 |
| 20260507174950 | 42 | 321 | 2.6 | 3.5 | 0.00 | 0.00 | 0.00 | 67 | 998.8 |
| 20260507174450 | 42 | 286 | 3.5 | 6.1 | 0.00 | 0.00 | 0.00 | 69 | 998.9 |
| 20260507173950 | 42 | 307 | 4.3 | 6.1 | 0.00 | 0.00 | 0.00 | 69 | 998.9 |
| 20260507173450 | 41 | 301 | 4.3 | 7.8 | 0.00 | 0.00 | 0.00 | 71 | 998.9 |
| 20260507172950 | 41 | 316 | 4.3 | 7.0 | 0.00 | 0.00 | 0.00 | 70 | 999.0 |
| 20260507172450 | 41 | 320 | 4.3 | 10.4 | 0.00 | 0.00 | 0.00 | 67 | 999.1 |
| 20260507171950 | 42 | 291 | 3.5 | 7.8 | 0.00 | 0.00 | 0.00 | 69 | 999.0 |
| 20260507171450 | 41 | 286 | 1.7 | 4.3 | 0.00 | 0.00 | 0.00 | 69 | 999.1 |
| 20260507170950 | 41 | 323 | 3.5 | 3.5 | 0.00 | 0.00 | 0.00 | 71 | 999.2 |
| 20260507170450 | 41 | 321 | 6.1 | 9.6 | 0.00 | 0.00 | 0.00 | 72 | 999.2 |
| 20260507165950 | 42 | 0 | 6.1 | 13.0 | 0.00 | 0.00 | 0.00 | 67 | 999.4 |
| 20260507165450 | 43 | 328 | 5.2 | 8.7 | 0.00 | 0.00 | 0.00 | 62 | 999.4 |
| 20260507164950 | 43 | 327 | 5.2 | 8.7 | 0.00 | 0.00 | 0.00 | 61 | 999.3 |
| 20260507164450 | 43 | 296 | 4.3 | 9.6 | 0.00 | 0.00 | 0.00 | 61 | 999.4 |
| 20260507163950 | 43 | 309 | 4.3 | 8.7 | 0.00 | 0.00 | 0.00 | 62 | 999.4 |
| 20260507163450 | 43 | 255 | 6.1 | 7.8 | 0.00 | 0.00 | 0.00 | 61 | 999.4 |
| 20260507162951 | 44 | 287 | 5.2 | 11.3 | 0.00 | 0.00 | 0.00 | 61 | 999.5 |
| 20260507162450 | 44 | 288 | 4.3 | 9.6 | 0.00 | 0.00 | 0.00 | 60 | 999.5 |
| 20260507161950 | 44 | 273 | 5.2 | 9.6 | 0.00 | 0.00 | 0.00 | 61 | 999.5 |
| 20260507161450 | 45 | 300 | 4.3 | 8.7 | 0.00 | 0.00 | 0.00 | 61 | 999.4 |
| 20260507160950 | 44 | 282 | 5.2 | 7.8 | 0.00 | 0.00 | 0.00 | 62 | 999.4 |
| 20260507160450 | 44 | 281 | 7.0 | 9.6 | 0.00 | 0.00 | 0.00 | 61 | 999.5 |
| 20260507155950 | 44 | 294 | 6.1 | 10.4 | 0.00 | 0.00 | 0.00 | 61 | 999.5 |
| 20260507155450 | 44 | 305 | 6.1 | 9.6 | 0.00 | 0.00 | 0.00 | 62 | 999.5 |
| 20260507154950 | 43 | 316 | 7.8 | 11.3 | 0.00 | 0.00 | 0.00 | 61 | 999.5 |
| 20260507154450 | 43 | 302 | 7.8 | 13.0 | 0.00 | 0.00 | 0.00 | 60 | 999.6 |
| 20260507153951 | 43 | 301 | 7.8 | 10.4 | 0.00 | 0.00 | 0.00 | 60 | 999.6 |
| 20260507153451 | 43 | 292 | 8.7 | 11.3 | 0.00 | 0.00 | 0.00 | 60 | 999.6 |
| 20260507152951 | 43 | 305 | 7.0 | 12.2 | 0.00 | 0.00 | 0.00 | 61 | 999.5 |
| 20260507152451 | 43 | 286 | 6.1 | 9.6 | 0.00 | 0.00 | 0.00 | 61 | 999.6 |
| 20260507151951 | 42 | 316 | 6.1 | 12.2 | 0.00 | 0.00 | 0.00 | 62 | 999.6 |
| 20260507151451 | 42 | 305 | 6.1 | 8.7 | 0.00 | 0.00 | 0.00 | 62 | 999.7 |
| 20260507150951 | 42 | 313 | 6.1 | 9.6 | 0.00 | 0.00 | 0.00 | 62 | 999.7 |
| 20260507150451 | 42 | 319 | 7.0 | 8.7 | 0.00 | 0.00 | 0.00 | 62 | 999.7 |
| 20260507145951 | 42 | 296 | 7.8 | 12.2 | 0.00 | 0.00 | 0.00 | 61 | 999.7 |
| 20260507145451 | 42 | 304 | 6.1 | 11.3 | 0.00 | 0.00 | 0.00 | 62 | 999.7 |
| 20260507144951 | 42 | 304 | 5.2 | 8.7 | 0.00 | 0.00 | 0.00 | 62 | 999.7 |
| 20260507144451 | 42 | 318 | 5.2 | 9.6 | 0.00 | 0.00 | 0.00 | 61 | 999.7 |
| 20260507143951 | 42 | 298 | 5.2 | 8.7 | 0.00 | 0.00 | 0.00 | 62 | 999.7 |
| 20260507143451 | 42 | 294 | 4.3 | 9.6 | 0.00 | 0.00 | 0.00 | 62 | 999.8 |
| 20260507142951 | 42 | 291 | 5.2 | 8.7 | 0.00 | 0.00 | 0.00 | 64 | 999.7 |
| 20260507142451 | 42 | 284 | 4.3 | 10.4 | 0.00 | 0.00 | 0.00 | 63 | 999.7 |
| 20260507141951 | 42 | 284 | 3.5 | 11.3 | 0.00 | 0.00 | 0.00 | 65 | 999.6 |
| 20260507141451 | 42 | 268 | 4.3 | 8.7 | 0.00 | 0.00 | 0.00 | 66 | 999.7 |
| 20260507140951 | 41 | 298 | 4.3 | 7.8 | 0.00 | 0.00 | 0.00 | 67 | 999.7 |
| 20260507140451 | 42 | 297 | 3.5 | 7.8 | 0.00 | 0.00 | 0.00 | 65 | 999.8 |
| 20260507135951 | 42 | 319 | 1.7 | 7.8 | 0.00 | 0.00 | 0.00 | 69 | 999.8 |
| 20260507135451 | 41 | 281 | 2.6 | 3.5 | 0.00 | 0.00 | 0.00 | 69 | 999.8 |
| 20260507134951 | 41 | 279 | 2.6 | 8.7 | 0.00 | 0.00 | 0.00 | 69 | 999.9 |
| 20260507134451 | 41 | 279 | 2.6 | 6.1 | 0.00 | 0.00 | 0.00 | 68 | 999.9 |
| 20260507133951 | 41 | 286 | 2.6 | 4.3 | 0.00 | 0.00 | 0.00 | 70 | 1000.0 |
| 20260507133451 | 41 | 285 | 2.6 | 4.3 | 0.00 | 0.00 | 0.00 | 70 | 999.9 |
| 20260507132951 | 40 | 273 | 1.7 | 3.5 | 0.00 | 0.00 | 0.00 | 72 | 999.8 |
| 20260507132451 | 40 | 295 | 1.7 | 4.3 | 0.00 | 0.00 | 0.00 | 72 | 999.8 |
| 20260507131951 | 40 | 287 | 1.7 | 5.2 | 0.00 | 0.00 | 0.00 | 71 | 999.8 |
| 20260507131451 | 40 | 285 | 1.7 | 5.2 | 0.00 | 0.00 | 0.00 | 73 | 999.9 |
| 20260507130951 | 39 | 287 | 1.7 | 3.5 | 0.00 | 0.00 | 0.00 | 75 | 999.9 |
| 20260507130451 | 39 | 277 | 1.7 | 5.2 | 0.00 | 0.00 | 0.00 | 75 | 999.9 |
| 20260507125951 | 38 | 286 | 1.7 | 3.5 | 0.00 | 0.00 | 0.00 | 76 | 999.9 |
| 20260507125451 | 38 | 289 | 1.7 | 2.6 | 0.00 | 0.00 | 0.00 | 78 | 999.9 |
| 20260507124951 | 37 | 282 | 1.7 | 3.5 | 0.00 | 0.00 | 0.00 | 80 | 999.9 |
| 20260507124451 | 37 | 282 | 1.7 | 2.6 | 0.00 | 0.00 | 0.00 | 81 | 999.8 |
| 20260507123951 | 36 | 286 | 1.7 | 3.5 | 0.00 | 0.00 | 0.00 | 83 | 999.8 |
| 20260507123451 | 35 | 276 | 1.7 | 2.6 | 0.00 | 0.00 | 0.00 | 83 | 999.8 |
| 20260507122951 | 35 | 278 | 0.9 | 2.6 | 0.00 | 0.00 | 0.00 | 84 | 999.8 |
| 20260507122451 | 34 | 280 | 0.9 | 1.7 | 0.00 | 0.00 | 0.00 | 85 | 999.8 |
| 20260507121951 | 34 | 283 | 0.9 | 1.7 | 0.00 | 0.00 | 0.00 | 84 | 999.8 |
| 20260507121451 | 33 | 284 | 0.0 | 2.6 | 0.00 | 0.00 | 0.00 | 85 | 999.8 |
| 20260507120951 | 33 | 276 | 0.0 | 0.0 | 0.00 | 0.00 | 0.00 | 85 | 999.8 |
| 20260507120451 | 32 | 276 | 0.0 | 0.0 | 0.00 | 0.00 | 0.00 | 86 | 999.9 |
| 20260507115951 | 32 | 276 | 0.0 | 0.9 | 0.00 | 0.00 | 0.00 | 86 | 999.8 |
| 20260507115451 | 32 | 276 | 0.0 | 0.9 | 0.00 | 0.00 | 0.00 | 85 | 999.8 |
| 20260507114951 | 32 | 276 | 0.0 | 0.9 | 0.00 | 0.00 | 0.00 | 84 | 999.7 |
| 20260507114451 | 31 | 276 | 0.0 | 0.9 | 0.00 | 0.00 | 0.00 | 84 | 999.6 |
| 20260507113951 | 31 | 276 | 0.0 | 0.0 | 0.00 | 0.00 | 0.00 | 83 | 999.6 |
| 20260507113451 | 31 | 276 | 0.9 | 0.9 | 0.00 | 0.00 | 0.00 | 83 | 999.6 |
| 20260507112951 | 31 | 276 | 0.9 | 1.7 | 0.00 | 0.00 | 0.00 | 83 | 999.6 |
| 20260507112451 | 31 | 276 | 0.0 | 0.9 | 0.00 | 0.00 | 0.00 | 83 | 999.6 |
| 20260507111951 | 31 | 276 | 0.0 | 0.0 | 0.00 | 0.00 | 0.00 | 83 | 999.6 |
| 20260507111451 | 31 | 276 | 0.0 | 0.0 | 0.00 | 0.00 | 0.00 | 83 | 999.5 |
| 20260507110951 | 31 | 276 | 0.0 | 0.0 | 0.00 | 0.00 | 0.00 | 83 | 999.5 |
| 20260507110451 | 31 | 276 | 0.0 | 0.0 | 0.00 | 0.00 | 0.00 | 83 | 999.5 |
| 20260507105951 | 31 | 276 | 0.0 | 0.0 | 0.00 | 0.00 | 0.00 | 83 | 999.4 |
| 20260507105452 | 31 | 276 | 0.0 | 0.0 | 0.00 | 0.00 | 0.00 | 82 | 999.4 |
| 20260507104952 | 31 | 276 | 0.0 | 0.0 | 0.00 | 0.00 | 0.00 | 82 | 999.4 |
| 20260507104452 | 31 | 276 | 0.9 | 0.9 | 0.00 | 0.00 | 0.00 | 82 | 999.4 |
| 20260507103952 | 31 | 276 | 1.7 | 1.7 | 0.00 | 0.00 | 0.00 | 81 | 999.3 |
| 20260507103452 | 31 | 272 | 1.7 | 1.7 | 0.00 | 0.00 | 0.00 | 82 | 999.3 |
| 20260507102952 | 31 | 276 | 1.7 | 1.7 | 0.00 | 0.00 | 0.00 | 82 | 999.3 |
| 20260507102452 | 31 | 281 | 0.9 | 1.7 | 0.00 | 0.00 | 0.00 | 82 | 999.2 |
| 20260507101952 | 30 | 281 | 0.9 | 1.7 | 0.00 | 0.00 | 0.00 | 83 | 999.2 |
| 20260507101452 | 30 | 281 | 0.9 | 1.7 | 0.00 | 0.00 | 0.00 | 83 | 999.2 |
| 20260507100952 | 30 | 281 | 0.9 | 1.7 | 0.00 | 0.00 | 0.00 | 83 | 999.2 |
| 20260507100452 | 29 | 281 | 0.0 | 0.9 | 0.00 | 0.00 | 0.00 | 83 | 999.2 |
| 20260507095952 | 30 | 281 | 0.0 | 0.0 | 0.00 | 0.00 | 0.00 | 82 | 999.3 |
| 20260507095452 | 30 | 281 | 0.0 | 0.0 | 0.00 | 0.00 | 0.00 | 82 | 999.3 |
| 20260507094952 | 30 | 281 | 0.0 | 0.0 | 0.00 | 0.00 | 0.00 | 81 | 999.3 |
| 20260507094452 | 30 | 281 | 0.0 | 0.9 | 0.00 | 0.00 | 0.00 | 81 | 999.3 |
| 20260507093952 | 31 | 281 | 0.9 | 1.7 | 0.00 | 0.00 | 0.00 | 80 | 999.3 |
| 20260507093452 | 31 | 281 | 0.9 | 1.7 | 0.00 | 0.00 | 0.00 | 80 | 999.3 |
| 20260507092952 | 31 | 281 | 1.7 | 1.7 | 0.00 | 0.00 | 0.00 | 80 | 999.3 |
| 20260507092452 | 31 | 287 | 0.9 | 1.7 | 0.00 | 0.00 | 0.00 | 80 | 999.3 |
| 20260507091952 | 31 | 287 | 0.9 | 1.7 | 0.00 | 0.00 | 0.00 | 79 | 999.4 |
| 20260507091452 | 31 | 285 | 0.9 | 1.7 | 0.00 | 0.00 | 0.00 | 79 | 999.4 |
| 20260507090952 | 31 | 284 | 1.7 | 1.7 | 0.00 | 0.00 | 0.00 | 79 | 999.4 |
| 20260507090452 | 31 | 292 | 1.7 | 2.6 | 0.00 | 0.00 | 0.00 | 79 | 999.4 |
| 20260507085952 | 31 | 289 | 0.9 | 2.6 | 0.00 | 0.00 | 0.00 | 79 | 999.3 |
| 20260507085452 | 31 | 280 | 0.0 | 1.7 | 0.00 | 0.00 | 0.00 | 79 | 999.4 |
| 20260507084952 | 31 | 280 | 0.0 | 0.9 | 0.00 | 0.00 | 0.00 | 79 | 999.4 |
| 20260507084452 | 31 | 280 | 0.9 | 1.7 | 0.00 | 0.00 | 0.00 | 78 | 999.5 |
| 20260507083954 | 31 | 280 | 0.9 | 1.7 | 0.00 | 0.00 | 0.00 | 78 | 999.5 |
| 20260507083452 | 31 | 280 | 0.9 | 1.7 | 0.00 | 0.00 | 0.00 | 78 | 999.5 |
| 20260507082952 | 31 | 280 | 0.9 | 1.7 | 0.00 | 0.00 | 0.00 | 78 | 999.5 |
| 20260507082452 | 31 | 280 | 0.9 | 1.7 | 0.00 | 0.00 | 0.00 | 78 | 999.5 |
| 20260507081952 | 31 | 280 | 0.9 | 2.6 | 0.00 | 0.00 | 0.00 | 78 | 999.5 |
| 20260507081452 | 31 | 281 | 0.9 | 1.7 | 0.00 | 0.00 | 0.00 | 78 | 999.5 |
| 20260507080952 | 31 | 271 | 1.7 | 1.7 | 0.00 | 0.00 | 0.00 | 78 | 999.5 |
| 20260507080452 | 31 | 271 | 1.7 | 1.7 | 0.00 | 0.00 | 0.00 | 78 | 999.5 |
| 20260507075952 | 31 | 271 | 1.7 | 1.7 | 0.00 | 0.00 | 0.00 | 78 | 999.5 |
| 20260507075452 | 31 | 271 | 1.7 | 1.7 | 0.00 | 0.00 | 0.00 | 78 | 999.5 |
| 20260507074952 | 31 | 274 | 1.7 | 2.6 | 0.00 | 0.00 | 0.00 | 78 | 999.6 |
| 20260507074452 | 31 | 281 | 1.7 | 2.6 | 0.00 | 0.00 | 0.00 | 78 | 999.6 |
| 20260507073952 | 31 | 281 | 1.7 | 2.6 | 0.00 | 0.00 | 0.00 | 78 | 999.6 |
| 20260507073452 | 31 | 279 | 1.7 | 2.6 | 0.00 | 0.00 | 0.00 | 78 | 999.6 |
| 20260507072952 | 31 | 279 | 1.7 | 2.6 | 0.00 | 0.00 | 0.00 | 78 | 999.6 |
| 20260507072452 | 31 | 279 | 1.7 | 2.6 | 0.00 | 0.00 | 0.00 | 78 | 999.6 |
| 20260507071952 | 31 | 279 | 1.7 | 2.6 | 0.00 | 0.00 | 0.00 | 77 | 999.6 |
| 20260507071452 | 32 | 283 | 1.7 | 2.6 | 0.00 | 0.00 | 0.00 | 77 | 999.6 |
| 20260507070952 | 32 | 289 | 1.7 | 2.6 | 0.00 | 0.00 | 0.00 | 77 | 999.7 |
| 20260507070452 | 32 | 289 | 1.7 | 2.6 | 0.00 | 0.00 | 0.00 | 76 | 999.7 |
| 20260507065952 | 32 | 277 | 1.7 | 2.6 | 0.00 | 0.00 | 0.00 | 76 | 999.8 |
| 20260507065452 | 32 | 273 | 0.9 | 2.6 | 0.00 | 0.00 | 0.00 | 76 | 999.8 |
| 20260507064952 | 32 | 276 | 0.9 | 1.7 | 0.00 | 0.00 | 0.00 | 76 | 999.9 |
| 20260507064453 | 32 | 276 | 1.7 | 1.7 | 0.00 | 0.00 | 0.00 | 76 | 1000.0 |
| 20260507063952 | 32 | 272 | 1.7 | 2.6 | 0.00 | 0.00 | 0.00 | 76 | 1000.0 |
| 20260507063452 | 32 | 277 | 1.7 | 1.7 | 0.00 | 0.00 | 0.00 | 76 | 1000.1 |
| 20260507062952 | 32 | 273 | 1.7 | 2.6 | 0.00 | 0.00 | 0.00 | 75 | 1000.1 |
| 20260507062452 | 33 | 279 | 1.7 | 2.6 | 0.00 | 0.00 | 0.00 | 75 | 1000.0 |
| 20260507061952 | 33 | 279 | 1.7 | 2.6 | 0.00 | 0.00 | 0.00 | 75 | 1000.1 |
| 20260507061453 | 33 | 271 | 1.7 | 1.7 | 0.00 | 0.00 | 0.00 | 74 | 1000.1 |
| 20260507060952 | 33 | 276 | 1.7 | 2.6 | 0.00 | 0.00 | 0.00 | 74 | 1000.2 |
| 20260507060453 | 33 | 279 | 0.9 | 1.7 | 0.00 | 0.00 | 0.00 | 74 | 1000.1 |
| 20260507055953 | 34 | 284 | 0.0 | 0.9 | 0.00 | 0.00 | 0.00 | 73 | 1000.1 |
| 20260507055453 | 34 | 284 | 0.0 | 0.0 | 0.00 | 0.00 | 0.00 | 73 | 1000.1 |
| 20260507054953 | 34 | 284 | 0.0 | 0.9 | 0.00 | 0.00 | 0.00 | 73 | 1000.3 |
| 20260507054453 | 34 | 284 | 0.0 | 0.0 | 0.00 | 0.00 | 0.00 | 73 | 1000.3 |
| 20260507053953 | 34 | 284 | 0.9 | 0.9 | 0.00 | 0.00 | 0.00 | 73 | 1000.4 |
| 20260507053453 | 34 | 284 | 0.9 | 1.7 | 0.00 | 0.00 | 0.00 | 72 | 1000.4 |
| 20260507052953 | 34 | 286 | 0.9 | 1.7 | 0.00 | 0.00 | 0.00 | 72 | 1000.5 |
| 20260507052453 | 34 | 286 | 0.9 | 1.7 | 0.00 | 0.00 | 0.00 | 72 | 1000.5 |
| 20260507051953 | 34 | 286 | 0.9 | 1.7 | 0.00 | 0.00 | 0.00 | 72 | 1000.6 |
| 20260507051453 | 35 | 286 | 0.9 | 1.7 | 0.00 | 0.00 | 0.00 | 72 | 1000.7 |
| 20260507050953 | 35 | 286 | 0.9 | 1.7 | 0.00 | 0.00 | 0.00 | 72 | 1000.6 |
| 20260507050453 | 35 | 286 | 0.9 | 1.7 | 0.00 | 0.00 | 0.00 | 72 | 1000.6 |
| 20260507045953 | 35 | 286 | 0.9 | 1.7 | 0.00 | 0.00 | 0.00 | 72 | 1000.6 |
| 20260507045453 | 35 | 295 | 0.9 | 1.7 | 0.00 | 0.00 | 0.00 | 72 | 1000.6 |
| 20260507044953 | 35 | 295 | 0.9 | 1.7 | 0.00 | 0.00 | 0.00 | 72 | 1000.6 |
| 20260507044453 | 35 | 295 | 0.9 | 1.7 | 0.00 | 0.00 | 0.00 | 71 | 1000.7 |
| 20260507043953 | 35 | 295 | 0.9 | 1.7 | 0.00 | 0.00 | 0.00 | 71 | 1000.6 |
| 20260507043453 | 35 | 295 | 0.9 | 1.7 | 0.00 | 0.00 | 0.00 | 71 | 1000.7 |
| 20260507042953 | 35 | 295 | 1.7 | 2.6 | 0.00 | 0.00 | 0.00 | 71 | 1000.7 |
| 20260507042453 | 35 | 295 | 1.7 | 2.6 | 0.00 | 0.00 | 0.00 | 71 | 1000.7 |
| 20260507041953 | 35 | 295 | 1.7 | 2.6 | 0.00 | 0.00 | 0.00 | 71 | 1000.7 |
| 20260507041454 | 35 | 295 | 1.7 | 2.6 | 0.00 | 0.00 | 0.00 | 71 | 1000.7 |
| 20260507040953 | 35 | 295 | 1.7 | 2.6 | 0.00 | 0.00 | 0.00 | 71 | 1000.7 |
| 20260507040453 | 35 | 296 | 1.7 | 2.6 | 0.00 | 0.00 | 0.00 | 71 | 1000.6 |
| 20260507035953 | 35 | 292 | 0.9 | 2.6 | 0.00 | 0.00 | 0.00 | 71 | 1000.6 |
| 20260507035453 | 35 | 294 | 0.9 | 1.7 | 0.00 | 0.00 | 0.00 | 70 | 1000.6 |
| 20260507034953 | 36 | 294 | 0.9 | 1.7 | 0.00 | 0.00 | 0.00 | 70 | 1000.6 |
| 20260507034453 | 36 | 294 | 0.9 | 1.7 | 0.00 | 0.00 | 0.00 | 70 | 1000.6 |
| 20260507033953 | 36 | 294 | 0.9 | 1.7 | 0.00 | 0.00 | 0.00 | 70 | 1000.6 |
| 20260507033453 | 36 | 294 | 0.9 | 1.7 | 0.00 | 0.00 | 0.00 | 69 | 1000.6 |
| 20260507032953 | 36 | 294 | 0.9 | 1.7 | 0.00 | 0.00 | 0.00 | 69 | 1000.6 |
| 20260507032453 | 36 | 294 | 0.9 | 1.7 | 0.00 | 0.00 | 0.00 | 70 | 1000.6 |
| 20260507031953 | 36 | 294 | 0.9 | 1.7 | 0.00 | 0.00 | 0.00 | 70 | 1000.6 |
| 20260507031453 | 37 | 294 | 0.9 | 1.7 | 0.00 | 0.00 | 0.00 | 69 | 1000.7 |
| 20260507030953 | 37 | 300 | 1.7 | 2.6 | 0.00 | 0.00 | 0.00 | 70 | 1000.7 |
| 20260507030453 | 37 | 300 | 1.7 | 2.6 | 0.00 | 0.00 | 0.00 | 70 | 1000.7 |
| 20260507025953 | 37 | 296 | 1.7 | 1.7 | 0.00 | 0.00 | 0.00 | 70 | 1000.7 |
| 20260507025453 | 37 | 295 | 1.7 | 2.6 | 0.00 | 0.00 | 0.00 | 70 | 1000.7 |
| 20260507024953 | 37 | 292 | 2.6 | 2.6 | 0.00 | 0.00 | 0.00 | 70 | 1000.7 |
| 20260507024453 | 37 | 297 | 2.6 | 3.5 | 0.00 | 0.00 | 0.00 | 70 | 1000.8 |
| 20260507023953 | 37 | 296 | 2.6 | 3.5 | 0.00 | 0.00 | 0.00 | 70 | 1000.7 |
| 20260507023453 | 37 | 292 | 1.7 | 2.6 | 0.00 | 0.00 | 0.00 | 70 | 1000.6 |
| 20260507022953 | 38 | 285 | 1.7 | 2.6 | 0.00 | 0.00 | 0.00 | 69 | 1000.6 |
| 20260507022453 | 38 | 293 | 1.7 | 2.6 | 0.00 | 0.00 | 0.00 | 69 | 1000.5 |
| 20260507021953 | 38 | 294 | 1.7 | 2.6 | 0.00 | 0.00 | 0.00 | 69 | 1000.6 |
| 20260507021453 | 38 | 294 | 1.7 | 1.7 | 0.00 | 0.00 | 0.00 | 69 | 1000.5 |
| 20260507020953 | 38 | 294 | 0.9 | 2.6 | 0.00 | 0.00 | 0.00 | 68 | 1000.5 |
| 20260507020453 | 38 | 284 | 0.9 | 1.7 | 0.00 | 0.00 | 0.00 | 68 | 1000.4 |
| 20260507015953 | 38 | 284 | 0.9 | 1.7 | 0.00 | 0.00 | 0.00 | 67 | 1000.4 |
| 20260507015453 | 38 | 284 | 0.9 | 1.7 | 0.00 | 0.00 | 0.00 | 67 | 1000.4 |
| 20260507014953 | 38 | 284 | 0.9 | 1.7 | 0.00 | 0.00 | 0.00 | 66 | 1000.4 |
| 20260507014453 | 38 | 286 | 0.9 | 1.7 | 0.00 | 0.00 | 0.00 | 66 | 1000.4 |
| 20260507013953 | 39 | 286 | 1.7 | 1.7 | 0.00 | 0.00 | 0.00 | 66 | 1000.4 |
| 20260507013453 | 39 | 286 | 1.7 | 2.6 | 0.00 | 0.00 | 0.00 | 65 | 1000.4 |
| 20260507012953 | 39 | 290 | 2.6 | 3.5 | 0.00 | 0.00 | 0.00 | 65 | 1000.3 |
| 20260507012453 | 39 | 291 | 1.7 | 3.5 | 0.00 | 0.00 | 0.00 | 64 | 1000.3 |
| 20260507011954 | 39 | 279 | 2.6 | 2.6 | 0.00 | 0.00 | 0.00 | 65 | 1000.2 |
| 20260507011454 | 39 | 294 | 2.6 | 5.2 | 0.00 | 0.00 | 0.00 | 63 | 1000.2 |
| 20260507010954 | 39 | 305 | 2.6 | 6.1 | 0.00 | 0.00 | 0.00 | 62 | 1000.1 |
| 20260507010454 | 39 | 328 | 3.5 | 4.3 | 0.00 | 0.00 | 0.00 | 62 | 1000.1 |
| 20260507005954 | 40 | 311 | 3.5 | 7.8 | 0.00 | 0.00 | 0.00 | 61 | 1000.1 |
| 20260507005454 | 40 | 311 | 5.2 | 7.0 | 0.00 | 0.00 | 0.00 | 61 | 1000.1 |
| 20260507004954 | 40 | 292 | 5.2 | 8.7 | 0.00 | 0.00 | 0.00 | 61 | 1000.1 |